Time;durP1;ratioP1;P1;durP2;ratioP2;P2;SDS_P1;SDS_P2;PMS_P1;PMS_P2;Temp;Humidity;BMP_temperature;BMP_pressure;BME280_temperature;BME280_humidity;BME280_pressure;Samples;Min_cycle;Max_cycle;Signal;HPM_P1;HPM_P2
2021/01/12 00:00:24;;;;;;;7.32;1.15;;;8.30;99.90;;;;;;5036985;28;20055;-88
2021/01/12 00:02:52;;;;;;;5.25;1.05;;;8.40;99.90;;;;;;5039512;28;20048;-89
2021/01/12 00:05:20;;;;;;;4.10;0.97;;;8.40;99.90;;;;;;5039561;28;20478;-88
2021/01/12 00:07:47;;;;;;;3.70;0.57;;;8.40;99.90;;;;;;5036150;28;20053;-89
2021/01/12 00:10:13;;;;;;;4.50;0.60;;;8.40;99.90;;;;;;5040531;28;20375;-88
2021/01/12 00:12:41;;;;;;;3.22;0.60;;;8.50;99.90;;;;;;5058891;28;20128;-89
2021/01/12 00:15:08;;;;;;;4.40;0.65;;;8.50;99.90;;;;;;5035234;28;20041;-89
2021/01/12 00:17:34;;;;;;;5.28;0.65;;;8.50;99.90;;;;;;5035998;28;20048;-88
2021/01/12 00:20:04;;;;;;;6.47;0.93;;;8.50;99.90;;;;;;5030070;28;20110;-88
2021/01/12 00:22:30;;;;;;;8.52;0.98;;;8.50;99.90;;;;;;5025209;28;20045;-88
2021/01/12 00:24:57;;;;;;;10.45;1.10;;;8.50;99.90;;;;;;5027380;28;20049;-88
2021/01/12 00:27:24;;;;;;;5.55;0.95;;;8.60;99.90;;;;;;5029244;28;20076;-89
2021/01/12 00:29:51;;;;;;;7.03;1.02;;;8.50;99.90;;;;;;5030947;28;20049;-88
2021/01/12 00:32:24;;;;;;;7.10;0.98;;;8.60;99.90;;;;;;5031310;28;20057;-88
2021/01/12 00:34:55;;;;;;;6.25;1.02;;;8.60;99.90;;;;;;5022066;28;20076;-88
2021/01/12 00:37:24;;;;;;;6.13;0.98;;;8.60;99.90;;;;;;5039823;28;20045;-89
2021/01/12 00:39:51;;;;;;;;;;;8.60;99.90;;;;;;5039247;28;20044;-88
2021/01/12 00:42:19;;;;;;;4.00;0.90;;;8.60;99.90;;;;;;5033745;28;19994;-88
2021/01/12 00:44:46;;;;;;;4.95;0.80;;;8.60;99.90;;;;;;5031833;28;20467;-88
2021/01/12 00:47:13;;;;;;;7.63;0.90;;;8.60;99.90;;;;;;5038064;28;20044;-88
2021/01/12 00:49:39;;;;;;;8.45;0.80;;;8.60;99.90;;;;;;5040878;28;20071;-89
2021/01/12 00:52:11;;;;;;;9.15;1.52;;;8.50;99.90;;;;;;5040522;28;20045;-89
2021/01/12 00:54:38;;;;;;;5.20;0.75;;;8.60;99.90;;;;;;5035549;28;20064;-89
2021/01/12 00:57:05;;;;;;;4.78;0.60;;;8.60;99.90;;;;;;5038837;28;20486;-89
2021/01/12 00:59:31;;;;;;;3.92;0.85;;;8.60;99.90;;;;;;5073068;28;20047;-88
2021/01/12 01:02:04;;;;;;;4.15;0.60;;;8.60;99.90;;;;;;5038077;28;20056;-88
2021/01/12 01:04:30;;;;;;;4.00;0.63;;;8.60;99.90;;;;;;5038920;28;20037;-89
2021/01/12 01:06:57;;;;;;;4.75;0.70;;;8.60;99.90;;;;;;5026450;28;20049;-88
2021/01/12 01:09:24;;;;;;;5.53;0.80;;;8.60;99.90;;;;;;5019596;28;20045;-88
2021/01/12 01:11:51;;;;;;;5.30;0.73;;;8.60;99.90;;;;;;5029431;28;20073;-89
2021/01/12 01:14:19;;;;;;;3.92;0.73;;;8.60;99.90;;;;;;5018578;28;20042;-89
2021/01/12 01:16:45;;;;;;;5.95;0.88;;;8.70;99.90;;;;;;5026460;28;20049;-89
2021/01/12 01:19:12;;;;;;;10.00;1.00;;;8.70;99.90;;;;;;5032538;28;20483;-89
2021/01/12 01:21:39;;;;;;;4.35;1.05;;;8.70;99.90;;;;;;5027958;28;20025;-88
2021/01/12 01:24:07;;;;;;;16.38;1.10;;;8.70;99.90;;;;;;5012988;28;20123;-88
2021/01/12 01:26:33;;;;;;;6.05;1.33;;;8.70;99.90;;;;;;5028797;28;20052;-88
2021/01/12 01:29:01;;;;;;;4.18;0.93;;;8.70;99.90;;;;;;5034495;28;20080;-88
2021/01/12 01:31:42;;;;;;;6.47;1.25;;;8.70;99.90;;;;;;5031846;28;20049;-88
2021/01/12 01:34:08;;;;;;;7.25;1.42;;;8.70;99.90;;;;;;5033785;28;20098;-88
2021/01/12 01:36:36;;;;;;;5.90;1.10;;;8.70;99.90;;;;;;5033200;28;20053;-89
2021/01/12 01:39:06;;;;;;;8.43;1.30;;;8.60;99.90;;;;;;5028962;28;20382;-89
2021/01/12 01:41:33;;;;;;;6.63;1.38;;;8.70;99.90;;;;;;5036444;28;20079;-88
2021/01/12 01:44:05;;;;;;;7.85;1.17;;;8.60;99.90;;;;;;5024977;28;20454;-89
2021/01/12 01:46:32;;;;;;;;;;;8.60;99.90;;;;;;5036917;28;20049;-88
2021/01/12 01:48:59;;;;;;;6.57;1.02;;;8.60;99.90;;;;;;5033785;28;19920;-88
2021/01/12 01:51:27;;;;;;;10.48;1.10;;;8.60;99.90;;;;;;5032373;28;20052;-89
2021/01/12 01:53:54;;;;;;;8.90;1.35;;;8.60;99.90;;;;;;5025562;28;20052;-89
2021/01/12 01:56:24;;;;;;;8.75;1.17;;;8.60;99.90;;;;;;5032689;28;20078;-89
2021/01/12 01:58:51;;;;;;;6.97;1.23;;;8.60;99.90;;;;;;5057279;28;20041;-89
2021/01/12 02:01:17;;;;;;;6.75;0.98;;;8.60;99.90;;;;;;5028689;28;20057;-88
2021/01/12 02:03:56;;;;;;;5.85;0.85;;;8.60;99.90;;;;;;5023856;28;20387;-88
2021/01/12 02:06:28;;;;;;;5.07;0.98;;;8.60;99.90;;;;;;5026207;28;20048;-88
2021/01/12 02:09:07;;;;;;;7.75;1.10;;;8.60;99.90;;;;;;5025433;28;20471;-89
2021/01/12 02:11:39;;;;;;;6.03;1.42;;;8.70;99.90;;;;;;5027103;28;20045;-88
2021/01/12 02:14:07;;;;;;;7.35;0.80;;;8.70;99.90;;;;;;5022058;28;20053;-89
2021/01/12 02:16:35;;;;;;;5.13;0.90;;;8.60;99.90;;;;;;5029560;28;20482;-88
2021/01/12 02:19:05;;;;;;;12.10;1.27;;;8.60;99.90;;;;;;5032107;28;20041;-88
2021/01/12 02:21:39;;;;;;;6.72;0.95;;;8.60;99.90;;;;;;5033658;28;20045;-88
2021/01/12 02:24:09;;;;;;;10.07;1.48;;;8.60;99.90;;;;;;5028063;28;20495;-88
2021/01/12 02:26:35;;;;;;;8.73;1.23;;;8.60;99.90;;;;;;5040828;28;20103;-88
2021/01/12 02:29:03;;;;;;;6.55;1.52;;;8.60;99.90;;;;;;5043724;28;20080;-88
2021/01/12 02:31:30;;;;;;;6.30;0.85;;;8.60;99.90;;;;;;5035482;28;20045;-89
2021/01/12 02:34:00;;;;;;;8.75;0.98;;;8.60;99.90;;;;;;5078637;28;20041;-88
2021/01/12 02:36:30;;;;;;;8.10;1.25;;;8.60;99.90;;;;;;5036553;28;20091;-89
2021/01/12 02:39:00;;;;;;;6.85;1.00;;;8.60;99.90;;;;;;5034315;28;20045;-88
2021/01/12 02:41:34;;;;;;;5.78;1.35;;;8.70;99.90;;;;;;5033936;28;20430;-88
2021/01/12 02:44:02;;;;;;;9.05;1.35;;;8.70;99.90;;;;;;5033035;28;20471;-88
2021/01/12 02:46:30;;;;;;;5.87;0.80;;;8.70;99.90;;;;;;5034818;28;20092;-88
2021/01/12 02:48:59;;;;;;;4.33;0.63;;;8.70;99.90;;;;;;5021111;28;20331;-88
2021/01/12 02:51:25;;;;;;;5.35;1.00;;;8.70;99.90;;;;;;5023492;28;20304;-87
2021/01/12 02:53:52;;;;;;;6.53;0.95;;;8.70;99.90;;;;;;5023726;28;20048;-89
2021/01/12 02:56:24;;;;;;;4.88;0.90;;;8.70;99.90;;;;;;5059215;28;20064;-88
2021/01/12 02:58:51;;;;;;;4.07;0.70;;;8.80;99.90;;;;;;5022201;28;20048;-88
2021/01/12 03:01:20;;;;;;;4.93;0.82;;;8.80;99.90;;;;;;5025651;28;20103;-88
2021/01/12 03:03:46;;;;;;;4.85;1.00;;;8.80;99.90;;;;;;5025657;28;20459;-88
2021/01/12 03:06:13;;;;;;;4.50;1.10;;;8.80;99.90;;;;;;5026753;28;20045;-88
2021/01/12 03:08:39;;;;;;;4.72;0.73;;;8.80;99.90;;;;;;5031376;28;20110;-89
2021/01/12 03:11:06;;;;;;;6.97;1.02;;;8.80;99.90;;;;;;5033698;28;20052;-88
2021/01/12 03:13:32;;;;;;;6.88;1.25;;;8.80;99.90;;;;;;5031245;28;20045;-89
2021/01/12 03:15:59;;;;;;;8.05;1.35;;;8.80;99.90;;;;;;5033644;28;20052;-88
2021/01/12 03:18:26;;;;;;;11.15;1.80;;;8.80;99.90;;;;;;5035122;28;20056;-88
2021/01/12 03:20:55;;;;;;;10.15;1.25;;;8.70;99.90;;;;;;5032456;28;20532;-88
2021/01/12 03:23:21;;;;;;;10.73;1.13;;;8.80;99.90;;;;;;5060466;28;20045;-89
2021/01/12 03:25:48;;;;;;;8.00;0.88;;;8.80;99.90;;;;;;5034814;28;20414;-88
2021/01/12 03:28:14;;;;;;;5.07;0.77;;;8.70;99.90;;;;;;5034301;28;20052;-88
2021/01/12 03:30:41;;;;;;;5.38;0.93;;;8.80;99.90;;;;;;5033861;28;20578;-89
2021/01/12 03:33:07;;;;;;;5.97;0.80;;;8.80;99.90;;;;;;5029339;28;20041;-88
2021/01/12 03:35:34;;;;;;;6.82;0.88;;;8.80;99.90;;;;;;5032684;28;20048;-89
2021/01/12 03:38:00;;;;;;;10.63;1.27;;;8.80;99.90;;;;;;5034670;28;20056;-88
2021/01/12 03:40:27;;;;;;;8.38;1.40;;;8.80;99.90;;;;;;5019083;28;20053;-88
2021/01/12 03:42:53;;;;;;;8.70;1.23;;;8.80;99.90;;;;;;5019292;28;20053;-88
2021/01/12 03:45:20;;;;;;;11.70;1.23;;;8.80;99.90;;;;;;5024840;28;20066;-88
2021/01/12 03:47:46;;;;;;;11.95;1.33;;;8.80;99.90;;;;;;5023565;28;20060;-88
2021/01/12 03:50:15;;;;;;;8.43;1.30;;;8.80;99.90;;;;;;5024465;28;20133;-88
2021/01/12 03:52:42;;;;;;;;;;;8.70;99.90;;;;;;5028707;28;20109;-88
2021/01/12 03:55:09;;;;;;;9.63;1.25;;;8.70;99.90;;;;;;5054952;28;19928;-88
2021/01/12 03:57:35;;;;;;;8.88;1.58;;;8.70;99.90;;;;;;5054160;28;20045;-88
2021/01/12 04:00:04;;;;;;;7.88;0.90;;;8.70;99.90;;;;;;5023626;28;20483;-88
2021/01/12 04:02:30;;;;;;;6.65;1.00;;;8.70;99.90;;;;;;5031550;28;20045;-88
2021/01/12 04:04:58;;;;;;;7.22;1.00;;;8.70;99.90;;;;;;5033991;28;20049;-88
2021/01/12 04:07:25;;;;;;;7.78;1.10;;;8.60;99.90;;;;;;5041123;28;20057;-88
2021/01/12 04:09:51;;;;;;;9.85;1.52;;;8.60;99.90;;;;;;5041971;28;20094;-88
2021/01/12 04:12:18;;;;;;;12.30;1.10;;;8.60;99.90;;;;;;5034176;28;20099;-88
2021/01/12 04:14:45;;;;;;;7.45;1.10;;;8.50;99.90;;;;;;5032852;28;20131;-88
2021/01/12 04:17:11;;;;;;;9.18;1.20;;;8.50;99.90;;;;;;5043084;28;20060;-88
2021/01/12 04:19:38;;;;;;;9.77;1.20;;;8.50;99.90;;;;;;5033877;28;20045;-88
2021/01/12 04:22:04;;;;;;;4.57;0.98;;;8.40;99.90;;;;;;5033328;28;20052;-88
2021/01/12 04:24:32;;;;;;;6.07;1.15;;;8.40;99.90;;;;;;5034039;28;20056;-88
2021/01/12 04:26:59;;;;;;;10.70;1.40;;;8.40;99.90;;;;;;5031301;28;20383;-88
2021/01/12 04:29:25;;;;;;;14.98;1.83;;;8.40;99.90;;;;;;5063741;28;20046;-88
2021/01/12 04:31:52;;;;;;;10.50;1.55;;;8.40;99.90;;;;;;5054415;28;20044;-88
2021/01/12 04:34:18;;;;;;;9.05;1.38;;;8.40;99.90;;;;;;5022412;28;20337;-88
2021/01/12 04:36:45;;;;;;;6.47;1.00;;;8.40;99.90;;;;;;5021076;28;20399;-88
2021/01/12 04:39:12;;;;;;;9.90;1.25;;;8.40;99.90;;;;;;5023908;28;20048;-88
2021/01/12 04:41:38;;;;;;;6.97;1.17;;;8.40;99.90;;;;;;5022566;28;20046;-88
2021/01/12 04:44:05;;;;;;;15.68;1.92;;;8.40;99.90;;;;;;5018247;28;20108;-88
2021/01/12 04:46:32;;;;;;;10.23;1.10;;;8.40;99.90;;;;;;5041840;28;20045;-89
2021/01/12 04:48:59;;;;;;;5.38;0.85;;;8.40;99.90;;;;;;5025046;28;20051;-88
2021/01/12 04:51:27;;;;;;;12.30;1.42;;;8.40;99.90;;;;;;5031890;28;20721;-88
2021/01/12 04:53:53;;;;;;;5.38;1.13;;;8.40;99.90;;;;;;5034131;28;20079;-89
2021/01/12 04:56:21;;;;;;;6.50;1.00;;;8.40;99.90;;;;;;5069182;28;20145;-88
2021/01/12 04:58:53;;;;;;;8.20;1.13;;;8.40;99.90;;;;;;5031259;28;20057;-89
2021/01/12 05:01:22;;;;;;;7.03;0.95;;;8.30;99.90;;;;;;5035958;28;20060;-88
2021/01/12 05:03:51;;;;;;;9.82;1.65;;;8.30;99.90;;;;;;5045536;28;20052;-88
2021/01/12 05:06:19;;;;;;;9.80;1.00;;;8.30;99.90;;;;;;5041620;28;20098;-88
2021/01/12 05:08:55;;;;;;;9.43;1.67;;;8.30;99.90;;;;;;5041614;28;20497;-88
2021/01/12 05:11:29;;;;;;;8.63;1.05;;;8.30;99.90;;;;;;5036045;28;20125;-88
2021/01/12 05:14:08;;;;;;;6.90;1.10;;;8.30;99.90;;;;;;5032553;28;20045;-89
2021/01/12 05:16:54;;;;;;;;;;;8.30;99.90;;;;;;5051163;28;20067;-89
2021/01/12 05:19:22;;;;;;;15.38;1.40;;;8.30;99.90;;;;;;5053065;28;20372;-89
2021/01/12 05:21:50;;;;;;;8.48;1.50;;;8.30;99.90;;;;;;5023807;28;20060;-88
2021/01/12 05:24:21;;;;;;;6.78;0.70;;;8.30;99.90;;;;;;5024171;28;20053;-89
2021/01/12 05:26:48;;;;;;;10.10;1.17;;;8.30;99.90;;;;;;5026007;28;20422;-88
2021/01/12 05:29:15;;;;;;;10.88;1.42;;;8.30;99.90;;;;;;5026016;28;20037;-88
2021/01/12 05:31:46;;;;;;;5.82;0.98;;;8.30;99.90;;;;;;5025957;28;20970;-89
2021/01/12 05:34:16;;;;;;;7.43;1.15;;;8.40;99.90;;;;;;5024690;28;20297;-89
2021/01/12 05:36:53;;;;;;;7.40;1.02;;;8.40;99.90;;;;;;5027639;28;20053;-89
2021/01/12 05:39:22;;;;;;;11.20;0.98;;;8.40;99.90;;;;;;5031830;28;20095;-89
2021/01/12 05:41:51;;;;;;;8.10;1.10;;;8.40;99.90;;;;;;5060433;28;20057;-89
2021/01/12 05:44:19;;;;;;;9.90;1.25;;;8.50;99.90;;;;;;5030126;28;20136;-88
2021/01/12 05:46:49;;;;;;;8.55;1.13;;;8.50;99.90;;;;;;5030327;28;20048;-89
2021/01/12 05:49:24;;;;;;;10.23;1.25;;;8.50;99.90;;;;;;5035147;28;20055;-88
2021/01/12 05:51:52;;;;;;;7.47;1.00;;;8.50;99.90;;;;;;5043408;28;20462;-89
2021/01/12 05:54:36;;;;;;;7.20;1.48;;;8.50;99.90;;;;;;5034788;28;20057;-88
2021/01/12 05:57:05;;;;;;;10.88;1.73;;;8.50;99.90;;;;;;5032766;28;20044;-89
2021/01/12 05:59:36;;;;;;;7.57;1.33;;;8.60;99.90;;;;;;5035501;28;20399;-88
2021/01/12 06:02:10;;;;;;;17.83;1.50;;;8.60;99.90;;;;;;5034120;28;20052;-88
2021/01/12 06:04:37;;;;;;;15.82;1.83;;;8.60;99.90;;;;;;5036177;28;20140;-89
2021/01/12 06:07:05;;;;;;;13.38;1.70;;;8.60;99.90;;;;;;5036229;28;20045;-90
2021/01/12 06:09:32;;;;;;;8.75;1.23;;;8.60;99.90;;;;;;5036628;28;20053;-91
2021/01/12 06:11:59;;;;;;;7.18;1.27;;;8.60;99.90;;;;;;5026788;28;20049;-89
2021/01/12 06:14:27;;;;;;;12.55;1.63;;;8.70;99.90;;;;;;5023767;28;20053;-89
2021/01/12 06:16:55;;;;;;;14.60;1.85;;;8.70;99.90;;;;;;5044749;28;20055;-88
2021/01/12 06:19:21;;;;;;;7.30;1.83;;;8.70;99.90;;;;;;5035391;28;20041;-89
2021/01/12 06:21:54;;;;;;;13.82;1.70;;;8.80;99.90;;;;;;5055743;28;20060;-90
2021/01/12 06:24:35;;;;;;;11.60;1.40;;;8.80;99.90;;;;;;5034855;28;20055;-89
2021/01/12 06:27:10;;;;;;;10.30;1.48;;;8.80;99.90;;;;;;5027080;28;20492;-89
2021/01/12 06:29:39;;;;;;;12.00;1.85;;;8.80;99.90;;;;;;5030387;28;20387;-90
2021/01/12 06:32:06;;;;;;;11.43;1.92;;;8.90;99.90;;;;;;5029934;28;20080;-90
2021/01/12 06:34:40;;;;;;;14.43;1.65;;;8.90;99.90;;;;;;5034672;28;20120;-89
2021/01/12 06:37:10;;;;;;;14.70;1.95;;;8.90;99.90;;;;;;5038809;28;20045;-89
2021/01/12 06:39:46;;;;;;;15.10;1.83;;;8.90;99.90;;;;;;5035350;28;20049;-90
2021/01/12 06:42:15;;;;;;;9.98;1.80;;;9.00;99.90;;;;;;5035049;28;20483;-89
2021/01/12 06:44:48;;;;;;;14.27;1.67;;;9.00;99.90;;;;;;5036059;28;20064;-89
2021/01/12 06:47:18;;;;;;;12.50;1.58;;;9.00;99.90;;;;;;5031403;28;20052;-89
2021/01/12 06:49:44;;;;;;;14.13;1.60;;;9.00;99.90;;;;;;5033670;28;20092;-89
2021/01/12 06:52:13;;;;;;;13.55;1.65;;;9.00;99.90;;;;;;5035796;28;20049;-89
2021/01/12 06:54:41;;;;;;;;;;;9.00;99.90;;;;;;5035286;28;20053;-89
2021/01/12 06:57:10;;;;;;;10.57;1.60;;;9.00;99.90;;;;;;5067128;28;19925;-89
2021/01/12 06:59:38;;;;;;;;;;;9.00;99.90;;;;;;5030647;28;20434;-89
2021/01/12 07:02:14;;;;;;;16.50;1.90;;;9.10;99.90;;;;;;5029422;28;19921;-89
2021/01/12 07:04:52;;;;;;;14.45;1.92;;;9.10;99.90;;;;;;5020058;28;20053;-89
2021/01/12 07:07:24;;;;;;;13.07;1.95;;;9.10;99.90;;;;;;5019535;28;20056;-89
2021/01/12 07:09:57;;;;;;;14.15;1.73;;;9.10;99.90;;;;;;5041415;28;20095;-89
2021/01/12 07:12:25;;;;;;;18.40;2.00;;;9.10;99.90;;;;;;5023561;28;20115;-90
2021/01/12 07:15:04;;;;;;;13.93;1.73;;;9.10;99.90;;;;;;5023047;28;20047;-89
2021/01/12 07:17:39;;;;;;;10.63;2.05;;;9.20;99.90;;;;;;5031741;28;20060;-89
2021/01/12 07:20:07;;;;;;;17.05;2.40;;;9.20;99.90;;;;;;5030295;28;20143;-89
2021/01/12 07:22:38;;;;;;;15.65;2.13;;;9.20;99.90;;;;;;5036388;28;20056;-90
2021/01/12 07:25:08;;;;;;;16.42;2.42;;;9.20;99.90;;;;;;5032296;28;20052;-89
2021/01/12 07:27:35;;;;;;;17.17;2.25;;;9.20;99.90;;;;;;5038609;28;20056;-90
2021/01/12 07:30:07;;;;;;;19.17;2.17;;;9.20;99.90;;;;;;5066278;28;20546;-89
2021/01/12 07:32:38;;;;;;;15.48;1.67;;;9.20;99.90;;;;;;5034817;28;20049;-90
2021/01/12 07:35:10;;;;;;;14.55;2.15;;;9.20;99.90;;;;;;5034668;28;20048;-90
2021/01/12 07:37:40;;;;;;;15.15;1.85;;;9.30;99.90;;;;;;5039750;28;20144;-89
2021/01/12 07:40:09;;;;;;;7.88;1.75;;;9.30;99.90;;;;;;5041672;28;20036;-90
2021/01/12 07:42:46;;;;;;;14.30;1.75;;;9.30;99.90;;;;;;5031880;28;20044;-90
2021/01/12 07:45:14;;;;;;;15.50;1.75;;;9.30;99.90;;;;;;5030464;28;20414;-87
2021/01/12 07:47:41;;;;;;;11.30;2.13;;;9.30;99.90;;;;;;5028318;28;20053;-89
2021/01/12 07:50:08;;;;;;;8.00;1.65;;;9.30;99.90;;;;;;5021985;28;20094;-90
2021/01/12 07:52:35;;;;;;;8.32;1.83;;;9.30;99.90;;;;;;5017845;28;20057;-89
2021/01/12 07:55:02;;;;;;;11.73;1.35;;;9.30;99.90;;;;;;5019264;28;20081;-89
2021/01/12 07:57:29;;;;;;;10.57;1.33;;;9.30;99.90;;;;;;5061851;28;20360;-90
2021/01/12 07:59:56;;;;;;;12.95;1.45;;;9.30;99.90;;;;;;5040367;28;20414;-90
2021/01/12 08:02:26;;;;;;;12.27;1.45;;;9.30;99.90;;;;;;5039281;28;20061;-90
2021/01/12 08:04:53;;;;;;;9.80;1.38;;;9.30;99.90;;;;;;5037955;28;20053;-90
2021/01/12 08:07:24;;;;;;;10.30;1.88;;;9.40;99.90;;;;;;5040156;28;20078;-90
2021/01/12 08:09:58;;;;;;;18.52;1.67;;;9.40;99.90;;;;;;5063711;28;20045;-89
2021/01/12 08:12:26;;;;;;;19.13;2.65;;;9.30;99.90;;;;;;5036947;28;20052;-90
2021/01/12 08:14:54;;;;;;;13.27;1.88;;;9.40;99.90;;;;;;5034461;28;20221;-90
2021/01/12 08:17:28;;;;;;;14.70;1.90;;;9.40;99.90;;;;;;5041542;28;20049;-90
2021/01/12 08:19:55;;;;;;;13.73;1.52;;;9.40;99.90;;;;;;5040386;28;20418;-88
2021/01/12 08:22:22;;;;;;;12.27;2.08;;;9.40;99.90;;;;;;5057608;28;20503;-89
2021/01/12 08:24:49;;;;;;;6.90;1.10;;;9.40;99.90;;;;;;5044244;28;20049;-89
2021/01/12 08:27:21;;;;;;;7.35;1.63;;;9.40;99.90;;;;;;5044103;28;20121;-90
2021/01/12 08:29:48;;;;;;;11.00;1.73;;;9.40;99.90;;;;;;5070359;28;20041;-89
2021/01/12 08:32:20;;;;;;;10.30;1.58;;;9.40;99.90;;;;;;5045537;28;20067;-89
2021/01/12 08:34:50;;;;;;;13.93;1.92;;;9.40;99.90;;;;;;5075504;28;20445;-90
2021/01/12 08:37:19;;;;;;;10.60;1.65;;;9.40;99.90;;;;;;5042119;28;20478;-89
2021/01/12 08:39:47;;;;;;;13.98;2.20;;;9.50;99.90;;;;;;5072101;28;20055;-89
2021/01/12 08:42:17;;;;;;;14.38;1.98;;;9.40;99.90;;;;;;5044414;28;20045;-90
2021/01/12 08:44:45;;;;;;;16.92;2.20;;;9.50;99.90;;;;;;5040670;28;20048;-90
2021/01/12 08:47:12;;;;;;;15.75;2.38;;;9.50;99.90;;;;;;5039456;28;20455;-90
2021/01/12 08:49:39;;;;;;;8.95;1.65;;;9.50;99.90;;;;;;5043279;28;20061;-90
2021/01/12 08:52:06;;;;;;;13.15;1.77;;;9.50;99.90;;;;;;5043861;28;20105;-90
2021/01/12 08:54:35;;;;;;;11.93;1.80;;;9.60;99.90;;;;;;5042827;28;20416;-90
2021/01/12 08:57:04;;;;;;;14.13;1.27;;;9.60;99.90;;;;;;5041562;28;20057;-90
2021/01/12 08:59:34;;;;;;;7.10;1.50;;;9.60;99.90;;;;;;5043841;28;20052;-90
2021/01/12 09:02:01;;;;;;;12.30;1.67;;;9.60;99.90;;;;;;5040667;28;20045;-91
2021/01/12 09:04:29;;;;;;;15.60;1.80;;;9.60;99.90;;;;;;5036750;28;20049;-90
2021/01/12 09:07:03;;;;;;;13.48;1.52;;;9.60;99.90;;;;;;5033059;28;20379;-90
2021/01/12 09:09:30;;;;;;;11.35;1.60;;;9.60;99.90;;;;;;5026877;28;20053;-89
2021/01/12 09:12:09;;;;;;;8.32;1.50;;;9.60;99.90;;;;;;5032862;28;20131;-90
2021/01/12 09:14:47;;;;;;;14.07;2.03;;;9.60;99.90;;;;;;5034011;28;20044;-89
2021/01/12 09:17:19;;;;;;;11.50;1.70;;;9.70;99.90;;;;;;5036811;28;20045;-89
2021/01/12 09:19:52;;;;;;;14.00;2.15;;;9.70;99.90;;;;;;5037399;28;20047;-89
2021/01/12 09:22:21;;;;;;;11.15;1.80;;;9.70;99.90;;;;;;5036605;28;20053;-89
2021/01/12 09:24:54;;;;;;;14.38;1.58;;;9.70;99.90;;;;;;5046112;28;20052;-89
2021/01/12 09:27:24;;;;;;;13.13;1.80;;;9.80;99.90;;;;;;5033284;28;20049;-89
2021/01/12 09:29:50;;;;;;;16.63;2.00;;;9.80;99.90;;;;;;5033578;28;20471;-89
2021/01/12 09:32:32;;;;;;;19.05;2.33;;;9.80;99.90;;;;;;5035066;28;20040;-89
2021/01/12 09:34:59;;;;;;;18.27;2.22;;;9.90;99.90;;;;;;5036120;28;20048;-89
2021/01/12 09:37:26;;;;;;;12.35;2.05;;;9.90;99.90;;;;;;5021347;28;20144;-89
2021/01/12 09:39:56;;;;;;;9.23;1.45;;;9.90;99.90;;;;;;5039812;28;20049;-89
2021/01/12 09:42:25;;;;;;;14.40;1.80;;;9.90;99.90;;;;;;5025794;28;20050;-89
2021/01/12 09:45:08;;;;;;;10.32;1.67;;;9.90;99.90;;;;;;5030204;28;20049;-89
2021/01/12 09:47:36;;;;;;;13.07;2.45;;;10.00;99.90;;;;;;5022905;28;20050;-89
2021/01/12 09:50:05;;;;;;;11.27;1.98;;;10.00;99.90;;;;;;5028314;28;20052;-89
2021/01/12 09:52:31;;;;;;;12.73;2.05;;;10.00;99.90;;;;;;5036101;28;20440;-89
2021/01/12 09:54:58;;;;;;;15.05;2.17;;;10.00;99.90;;;;;;5029481;28;20497;-89
2021/01/12 09:57:25;;;;;;;11.75;1.77;;;10.10;99.90;;;;;;5063925;28;20502;-89
2021/01/12 09:59:51;;;;;;;15.20;1.70;;;10.10;99.90;;;;;;5067117;28;20045;-89
2021/01/12 10:02:18;;;;;;;13.88;2.15;;;10.10;99.90;;;;;;5034012;28;20077;-89
2021/01/12 10:04:45;;;;;;;10.25;1.75;;;10.20;99.90;;;;;;5034538;28;20434;-90
2021/01/12 10:07:12;;;;;;;10.88;1.70;;;10.20;99.90;;;;;;5036159;28;20041;-89
2021/01/12 10:09:39;;;;;;;14.38;1.73;;;10.20;99.90;;;;;;5034649;28;20148;-89
2021/01/12 10:12:05;;;;;;;15.40;2.28;;;10.20;99.90;;;;;;5040990;28;20048;-89
2021/01/12 10:14:32;;;;;;;13.27;1.80;;;10.30;99.90;;;;;;5035273;28;20037;-88
2021/01/12 10:16:59;;;;;;;10.77;1.90;;;10.30;99.90;;;;;;5027565;28;20049;-89
2021/01/12 10:19:25;;;;;;;17.50;2.05;;;10.30;99.90;;;;;;5035065;28;20049;-89
2021/01/12 10:21:52;;;;;;;9.90;1.67;;;10.30;99.90;;;;;;5038696;28;20048;-89
2021/01/12 10:24:18;;;;;;;7.30;1.30;;;10.30;99.90;;;;;;5039526;28;20111;-89
2021/01/12 10:26:51;;;;;;;9.65;1.00;;;10.30;99.90;;;;;;5034355;28;20135;-89
2021/01/12 10:29:18;;;;;;;7.15;1.10;;;10.40;99.90;;;;;;5035035;28;20045;-89
2021/01/12 10:31:45;;;;;;;11.32;1.40;;;10.30;99.90;;;;;;5034132;28;20051;-89
2021/01/12 10:34:11;;;;;;;11.70;1.20;;;10.40;99.90;;;;;;5031199;28;20087;-89
2021/01/12 10:36:38;;;;;;;10.52;1.40;;;10.40;99.90;;;;;;5037300;28;20056;-89
2021/01/12 10:39:08;;;;;;;8.50;1.63;;;10.40;99.90;;;;;;5067675;28;20041;-89
2021/01/12 10:41:40;;;;;;;12.13;2.08;;;10.40;99.90;;;;;;5030577;28;20041;-89
2021/01/12 10:44:07;;;;;;;7.97;1.10;;;10.50;99.90;;;;;;5032385;28;20120;-89
2021/01/12 10:46:34;;;;;;;10.18;1.48;;;10.50;99.90;;;;;;5026833;28;20045;-89
2021/01/12 10:49:00;;;;;;;7.25;1.63;;;10.50;99.90;;;;;;5061036;28;20528;-89
2021/01/12 10:51:27;;;;;;;9.35;1.30;;;10.50;99.90;;;;;;5030894;28;20044;-89
2021/01/12 10:53:54;;;;;;;11.65;1.70;;;10.50;99.90;;;;;;5033056;28;20048;-89
2021/01/12 10:56:20;;;;;;;8.75;1.05;;;10.60;99.90;;;;;;5026063;28;20055;-89
2021/01/12 10:58:47;;;;;;;11.23;1.35;;;10.60;99.90;;;;;;5043805;28;20467;-89
2021/01/12 11:01:14;;;;;;;9.32;1.30;;;10.60;99.90;;;;;;5033552;28;20056;-89
2021/01/12 11:03:42;;;;;;;5.25;1.05;;;10.60;99.90;;;;;;5050555;28;20041;-88
2021/01/12 11:06:08;;;;;;;7.97;1.20;;;10.60;99.90;;;;;;5036189;28;20079;-89
2021/01/12 11:08:35;;;;;;;8.20;1.10;;;10.60;99.90;;;;;;5036261;28;20056;-89
2021/01/12 11:11:03;;;;;;;4.70;0.98;;;10.60;99.90;;;;;;5037029;28;20359;-89
2021/01/12 11:13:30;;;;;;;10.18;1.38;;;10.60;99.90;;;;;;5033913;28;20073;-89
2021/01/12 11:15:57;;;;;;;10.75;1.42;;;10.60;99.90;;;;;;5034212;28;20047;-89
2021/01/12 11:18:26;;;;;;;9.90;1.15;;;10.70;99.90;;;;;;5024891;28;20064;-89
2021/01/12 11:20:54;;;;;;;7.00;1.30;;;10.70;99.90;;;;;;5023712;28;20056;-89
2021/01/12 11:23:21;;;;;;;;;;;10.70;99.90;;;;;;5025083;28;20390;-89
2021/01/12 11:25:48;;;;;;;6.43;1.45;;;10.70;99.90;;;;;;5029770;28;20019;-89
2021/01/12 11:28:15;;;;;;;15.20;2.22;;;10.70;99.90;;;;;;5020027;28;20055;-90
2021/01/12 11:30:41;;;;;;;5.20;1.38;;;10.70;99.90;;;;;;5023489;28;20099;-89
2021/01/12 11:33:10;;;;;;;4.95;1.02;;;10.70;99.90;;;;;;5026040;28;20534;-89
2021/01/12 11:35:37;;;;;;;3.20;0.70;;;10.70;99.90;;;;;;5062261;28;20046;-89
2021/01/12 11:38:03;;;;;;;3.35;0.80;;;10.70;99.90;;;;;;5065094;28;20146;-89
2021/01/12 11:40:30;;;;;;;6.05;1.10;;;10.70;99.90;;;;;;5038585;28;20052;-89
2021/01/12 11:42:58;;;;;;;4.90;1.13;;;10.70;99.90;;;;;;5028991;28;20056;-90
2021/01/12 11:45:24;;;;;;;4.70;0.73;;;10.70;99.90;;;;;;5032369;28;20107;-87
2021/01/12 11:47:51;;;;;;;7.40;1.00;;;10.70;99.90;;;;;;5031954;28;20357;-87
2021/01/12 11:50:17;;;;;;;10.73;1.73;;;10.80;99.90;;;;;;5039194;28;20061;-86
2021/01/12 11:52:44;;;;;;;7.47;0.90;;;10.80;99.90;;;;;;5032681;28;20412;-87
2021/01/12 11:55:11;;;;;;;8.90;1.52;;;10.70;99.90;;;;;;5028026;28;20060;-87
2021/01/12 11:57:37;;;;;;;11.75;1.38;;;10.80;99.90;;;;;;5031270;28;20049;-87
2021/01/12 12:00:05;;;;;;;11.43;1.42;;;10.80;99.90;;;;;;5031270;28;20514;-86
2021/01/12 12:02:32;;;;;;;6.85;0.82;;;10.80;99.90;;;;;;5063955;28;20499;-87
2021/01/12 12:05:00;;;;;;;6.88;1.27;;;10.80;99.90;;;;;;5028578;28;20056;-87
2021/01/12 12:07:27;;;;;;;9.65;1.35;;;10.80;99.90;;;;;;5028091;28;20051;-87
2021/01/12 12:09:54;;;;;;;8.95;1.30;;;10.90;99.90;;;;;;5030093;28;20048;-87
2021/01/12 12:12:21;;;;;;;6.13;1.05;;;10.80;99.90;;;;;;5047764;28;20053;-86
2021/01/12 12:14:48;;;;;;;7.57;1.17;;;10.80;99.90;;;;;;5028097;28;20450;-88
2021/01/12 12:17:14;;;;;;;5.18;0.70;;;10.80;99.90;;;;;;5031140;28;20107;-88
2021/01/12 12:19:41;;;;;;;4.70;0.70;;;10.80;99.90;;;;;;5030731;28;20375;-87
2021/01/12 12:22:08;;;;;;;4.10;0.90;;;10.80;99.90;;;;;;5029380;28;20065;-88
2021/01/12 12:24:34;;;;;;;4.72;0.82;;;10.80;99.90;;;;;;5035301;28;20040;-87
2021/01/12 12:27:02;;;;;;;5.95;0.80;;;10.80;99.90;;;;;;5051982;28;20386;-87
2021/01/12 12:29:29;;;;;;;5.13;1.13;;;10.80;99.90;;;;;;5037851;28;20048;-87
2021/01/12 12:32:06;;;;;;;6.45;1.45;;;10.90;99.90;;;;;;5035418;28;20053;-87
2021/01/12 12:34:33;;;;;;;9.35;1.30;;;10.80;99.90;;;;;;5037468;28;20119;-87
2021/01/12 12:37:00;;;;;;;10.27;1.70;;;10.80;99.90;;;;;;5036751;28;20056;-88
2021/01/12 12:39:26;;;;;;;8.00;1.30;;;10.80;99.90;;;;;;5034479;28;20044;-87
2021/01/12 12:41:53;;;;;;;3.38;1.20;;;10.80;99.90;;;;;;5032323;28;20053;-87
2021/01/12 12:44:19;;;;;;;9.32;1.50;;;10.80;99.90;;;;;;5039764;28;20052;-89
2021/01/12 12:46:46;;;;;;;9.05;1.25;;;10.80;99.90;;;;;;5035716;28;20044;-88
2021/01/12 12:49:13;;;;;;;11.27;1.48;;;10.80;99.90;;;;;;5033981;28;20056;-87
2021/01/12 12:51:41;;;;;;;9.40;1.27;;;10.80;99.90;;;;;;5034192;28;20037;-88
2021/01/12 12:54:08;;;;;;;10.93;1.52;;;10.80;99.90;;;;;;5032907;28;20087;-88
2021/01/12 12:56:35;;;;;;;13.20;2.00;;;10.70;99.90;;;;;;5036199;28;20045;-86
2021/01/12 12:59:02;;;;;;;9.85;1.70;;;10.70;99.90;;;;;;5064375;28;20386;-88